Terminal Aerodrome Forecast
Issued by NWS

Home | Current Version | Previous Version | Text Only | Print | Product List | Glossary On
Versions: 1 2 3 4 5 6 7 8 9 10 11 12 13 14 15 16 17 18 19 20 21 22 23 24 25 26
000
FTUS43 KDMX 241122
TAFFOD
TAF
KFOD 241122Z 2412/2512 06007KT 1/4SM FG OVC003
      TEMPO 2412/2415 1SM BR OVC006
     FM241600 10009G15KT 3SM -FZRASN BR OVC006
     FM242300 24008KT 2SM -SN BR OVC006
     FM250200 28010KT P6SM OVC006
     FM250400 28014G22KT P6SM OVC011=

USA.gov is the U.S. government's official web portal to all federal, state and local government web resources and services.